הכול
Dickson Muni Airport (Dickson, TN) M02 מזג אוויר
|
Dickson, TN (M02)
שמים בהירים
רוחות שקטות |
|
35 °C |
There is no TAF data available at M02 or any nearby airports.
Recent M02 METAR history
| Date | Time (CDT) | Flight Rules | Wind Dir. | Speed | Type | Height AGL (ft) | Visibility | Temp (°C) | Temp (°F) | Dew Point (°C) | Dew Point (°F) | Rel. Humid. | Pressure | Density Altitude | Remarks |
|---|---|---|---|---|---|---|---|---|---|---|---|---|---|---|---|
| 02-ספט | 14:15 | VFR | Variable | 3 kt | Clear |
10 miles | 35° | 95° | 20° | 68° | 42% | 30.08 in Hg | 3,132 ft | ||
| 02-ספט | 13:55 | VFR | 260° | 7 kt | Clear |
10 miles | 35° | 95° | 20° | 68° | 42% | 30.08 in Hg | 3,132 ft | ||
| 02-ספט | 13:35 | VFR | Calm | 10 miles | 35° | 95° | 20° | 68° | 42% | 30.09 in Hg | 3,122 ft | ||||
| 02-ספט | 13:15 | VFR | Variable | 4 kt | 10 miles | 34° | 93° | 20° | 68° | 44% | 30.09 in Hg | 3,002 ft | Wind gusting to 10 KT | ||
| 02-ספט | 12:55 | VFR | 220° | 7 kt | 10 miles | 34° | 93° | 20° | 68° | 44% | 30.10 in Hg | 2,992 ft | |||
| 02-ספט | 12:15 | VFR | Calm | 10 miles | 34° | 93° | 20° | 68° | 44% | 30.11 in Hg | 2,982 ft | ||||
| 02-ספט | 11:55 | VFR | 270° | 6 kt | 10 miles | 34° | 93° | 20° | 68° | 44% | 30.12 in Hg | 2,972 ft | |||
| 02-ספט | 11:15 | VFR | 230° | 4 kt | 10 miles | 33° | 91° | 20° | 68° | 46% | 30.13 in Hg | 2,842 ft | |||
| 02-ספט | 10:55 | VFR | Calm | 10 miles | 33° | 91° | 20° | 68° | 46% | 30.13 in Hg | 2,842 ft | ||||
| 02-ספט | 10:15 | VFR | 240° | 5 kt | 10 miles | 33° | 91° | 21° | 69° | 49% | 30.13 in Hg | 2,842 ft | |||
| 02-ספט | 09:55 | VFR | 200° | 6 kt | 10 miles | 32° | 89° | 21° | 69° | 52% | 30.13 in Hg | 2,722 ft | |||
| 02-ספט | 09:15 | VFR | 230° | 3 kt | 10 miles | 30° | 86° | 21° | 69° | 59% | 30.13 in Hg | 2,482 ft | |||
| 02-ספט | 08:55 | VFR | 250° | 3 kt | 10 miles | 30° | 86° | 21° | 69° | 59% | 30.13 in Hg | 2,482 ft | |||
| 02-ספט | 08:15 | VFR | Calm | 10 miles | 28° | 82° | 22° | 71° | 70% | 30.12 in Hg | 2,252 ft | ||||
| 02-ספט | 07:55 | VFR | Calm | 10 miles | 25° | 77° | 22° | 71° | 83% | 30.12 in Hg | 1,892 ft | ||||
| 02-ספט | 07:15 | VFR | Calm | 10 miles | 23° | 73° | 21° | 69° | 89% | 30.12 in Hg | 1,652 ft | ||||
| 02-ספט | 06:55 | VFR | Calm | 10 miles | 22° | 71° | 20° | 68° | 88% | 30.11 in Hg | 1,542 ft | ||||
| 02-ספט | 06:15 | VFR | Calm | 10 miles | 22° | 71° | 21° | 69° | 94% | 30.10 in Hg | 1,552 ft | ||||
| 02-ספט | 05:55 | VFR | Calm | 10 miles | 22° | 71° | 21° | 69° | 94% | 30.09 in Hg | 1,562 ft | ||||
| 02-ספט | 05:15 | VFR | Calm | 10 miles | 23° | 73° | 20° | 68° | 83% | 30.08 in Hg | 1,692 ft | ||||
| 02-ספט | 04:55 | VFR | Calm | 10 miles | 24° | 75° | 20° | 68° | 78% | 30.08 in Hg | 1,812 ft | ||||
| 02-ספט | 04:15 | VFR | Calm | 10 miles | 24° | 75° | 20° | 68° | 78% | 30.07 in Hg | 1,822 ft | ||||
| 02-ספט | 03:55 | VFR | Calm | 10 miles | 24° | 75° | 21° | 69° | 83% | 30.07 in Hg | 1,822 ft | ||||
| 02-ספט | 03:35 | VFR | Calm | 10 miles | 23° | 73° | 21° | 69° | 89% | 30.06 in Hg | 1,712 ft |
כניסה לאתר
| אין תמיכה בדפדפן שלך. שדרג את הדפדפן שלך |
